Data for 10/12/2018

Time Sea-Level Adjusted Pressure Absolute Pressure Temperature Relative Humidity Dew Point   
(mb) (inHg) (mb) (inHg) (C) (F) (%) (C) (F)
00:05 1019 30.09 848 25.04 0.7 33.2 66 -5.1 22.9
00:10 1019 30.09 848 25.04 0.5 33 66 -5 22.9
00:15 1019 30.09 848 25.04 0.5 32.9 67 -4.9 23.2
00:20 1019 30.09 848 25.04 0.7 33.3 65 -5.1 22.9
00:25 1019 30.09 848 25.04 0.6 33.1 66 -5 22.9
00:30 1019 30.09 848 25.04 0.4 32.7 67 -5.1 22.8
00:35 1019 30.09 848 25.04 0.3 32.6 68 -5 23
00:40 1019 30.09 848 25.04 0.4 32.7 67 -5 22.9
00:45 1019 30.09 848 25.04 0.4 32.7 67 -5 23
00:50 1019 30.09 848 25.04 0.5 32.8 67 -5 23
00:55 1019 30.09 848 25.04 0.4 32.6 68 -4.9 23.1
01:00 1019 30.09 848 25.04 0.3 32.6 68 -4.9 23.2
01:05 1019 30.09 848 25.04 0.3 32.6 68 -4.9 23.1
01:10 1019 30.09 848 25.04 0.2 32.3 69 -4.9 23.1
01:15 1019 30.09 848 25.04 0 32 69 -5 23
01:20 1019 30.09 848 25.04 -0 31.9 69 -5 23
01:25 1019 30.09 848 25.04 -0.1 31.8 69 -5.1 22.8
01:30 1019 30.09 848 25.04 -0.1 31.9 69 -5.2 22.7
01:35 1019 30.09 848 25.04 0 32.1 68 -5.2 22.7
01:40 1019 30.09 848 25.04 0 32.1 68 -5.2 22.7
01:45 1019 30.09 848 25.04 -0.1 31.8 69 -5.1 22.9
01:50 1019 30.09 848 25.04 -0.2 31.6 70 -5.1 22.8
01:55 1019 30.09 848 25.04 -0.4 31.3 71 -5.1 22.9
02:00 1019 30.09 848 25.04 -0.4 31.3 66 -5.9 21.4
02:05 1019 30.09 848 25.04 0.3 32.5 62 -6.1 21.1
02:10 1019 30.09 848 25.04 0.6 33.1 62 -5.9 21.4
02:15 1019 30.09 848 25.04 0.5 32.8 62 -6 21.3
02:20 1019 30.09 848 25.04 0.4 32.8 61 -6.3 20.7
02:25 1019 30.09 848 25.04 0.9 33.6 58 -6.4 20.5
02:30 1019 30.09 848 25.04 1.1 34.1 58 -6.1 21
02:35 1019 30.09 849 25.07 0.8 33.5 60 -6 21.2
02:40 1019 30.09 848 25.04 0.5 32.8 62 -6.1 21.1
02:45 1019 30.09 849 25.07 0.3 32.5 63 -6 21.2
02:50 1019 30.09 849 25.07 0.1 32.1 63 -6.2 20.9
02:55 1019 30.09 849 25.07 0.1 32.2 63 -6.1 21.1
03:00 1019 30.09 849 25.07 0.1 32.2 63 -6.1 21.1
03:05 1019 30.09 849 25.07 0.2 32.4 63 -5.9 21.4
03:10 1019 30.09 848 25.04 0.2 32.4 63 -6 21.3
03:15 1019 30.09 848 25.04 0.2 32.3 64 -5.9 21.4
03:20 1019 30.09 849 25.07 0.2 32.3 63 -5.9 21.3
03:25 1019 30.09 849 25.07 -0 31.9 66 -5.7 21.7
03:30 1019 30.09 849 25.07 -0.2 31.6 64 -6.1 20.9
03:35 1019 30.09 848 25.04 -0.1 31.7 66 -5.8 21.6
03:40 1019 30.09 848 25.04 -0.4 31.3 66 -6 21.1
03:45 1019 30.09 848 25.04 -0.4 31.3 65 -6.2 20.9
03:50 1019 30.09 848 25.04 -0.5 31.1 66 -6.1 21
03:55 1019 30.09 848 25.04 -0.6 30.9 66 -6.2 20.8
04:00 1019 30.09 848 25.04 -0.6 30.9 65 -6.3 20.7
04:05 1019 30.09 848 25.04 -0.5 31.1 65 -6.4 20.5
04:10 1019 30.09 849 25.07 -0.4 31.3 64 -6.4 20.5
04:15 1019 30.09 849 25.07 -0.2 31.6 62 -6.6 20.2
04:20 1019 30.09 848 25.04 -0.1 31.8 64 -6.2 20.8
04:25 1019 30.09 849 25.07 -0.4 31.3 64 -6.5 20.4
04:30 1019 30.09 849 25.07 -0.3 31.5 62 -6.6 20.1
04:35 1019 30.09 849 25.07 -0.1 31.7 63 -6.4 20.6
04:40 1019 30.09 849 25.07 -0.3 31.4 64 -6.4 20.5
04:45 1019 30.09 849 25.07 -0.4 31.2 63 -6.6 20.2
04:50 1019 30.09 849 25.07 -0.3 31.4 63 -6.6 20.1
04:55 1019 30.09 849 25.07 -0.4 31.3 64 -6.4 20.5
05:00 1019 30.09 849 25.07 -0.3 31.4 63 -6.5 20.3
05:05 1019 30.09 849 25.07 -0.4 31.2 65 -6.2 20.9
05:10 1019 30.09 849 25.07 -0.5 31 64 -6.4 20.4
05:15 1019 30.09 849 25.07 -0.4 31.3 65 -6.1 21
05:20 1019 30.09 849 25.07 -0.7 30.8 66 -6.2 20.9
05:25 1019 30.09 849 25.07 -0.7 30.7 67 -6.1 20.9
05:30 1019 30.09 849 25.07 -0.5 31.1 66 -6.1 21
05:35 1020 30.12 849 25.07 -0.5 31.1 65 -6.2 20.8
05:40 1020 30.12 849 25.07 -0.8 30.5 69 -5.8 21.6
05:45 1019 30.09 849 25.07 -1.1 30 71 -5.7 21.7
05:50 1019 30.09 849 25.07 -1.2 29.8 68 -6.5 20.4
05:55 1019 30.09 849 25.07 -0.8 30.5 65 -6.5 20.3
06:00 1019 30.09 849 25.07 -0.7 30.7 66 -6.2 20.8
06:05 1019 30.09 849 25.07 -1 30.2 68 -6.2 20.8
06:10 1019 30.09 849 25.07 -1 30.2 68 -6.2 20.8
06:15 1019 30.09 849 25.07 -0.8 30.5 65 -6.5 20.2
06:20 1019 30.09 849 25.07 -0.4 31.3 65 -6.3 20.7
06:25 1019 30.09 849 25.07 -0.6 30.9 66 -6.2 20.8
06:30 1019 30.09 849 25.07 -0.7 30.7 66 -6.2 20.8
06:35 1019 30.09 849 25.07 -0.9 30.3 69 -6 21.2
06:40 1020 30.12 849 25.07 -1.1 30.1 68 -6.2 20.9
06:45 1019 30.09 849 25.07 -0.9 30.3 67 -6.3 20.7
06:50 1019 30.09 849 25.07 -0.7 30.7 65 -6.4 20.5
06:55 1019 30.09 849 25.07 -0.6 30.9 65 -6.3 20.6
07:00 1019 30.09 849 25.07 -0.7 30.8 66 -6.2 20.8
07:05 1020 30.12 849 25.07 -0.9 30.5 67 -6.2 20.9
07:10 1020 30.12 849 25.07 -1 30.2 68 -6.1 21
07:15 1020 30.12 849 25.07 -1.1 30.1 69 -6.1 21
07:20 1020 30.12 849 25.07 -1.1 30 67 -6.4 20.5
07:25 1020 30.12 849 25.07 -1.1 30.1 68 -6.2 20.8
07:30 1020 30.12 849 25.07 -1.2 29.8 70 -6 21.2
07:35 1020 30.12 849 25.07 -1.5 29.2 71 -6.2 20.8
07:40 1020 30.12 849 25.07 -1.5 29.3 71 -6.1 21
07:45 1020 30.12 849 25.07 -1.4 29.4 70 -6.2 20.9
07:50 1020 30.12 849 25.07 -1.7 28.9 72 -6.1 21
07:55 1019 30.09 849 25.07 -1.8 28.8 72 -6.1 21
08:00 1019 30.09 849 25.07 -1.2 29.8 70 -6 21.3
08:05 1019 30.09 849 25.07 -0.7 30.7 67 -6.1 21.1
08:10 1019 30.09 849 25.07 -0.6 31 65 -6.3 20.7
08:15 1019 30.09 849 25.07 -0.1 31.9 63 -6.2 20.8
08:20 1019 30.09 849 25.07 0.5 32.9 63 -5.9 21.5
08:25 1019 30.09 849 25.07 0.3 32.5 63 -5.9 21.4
08:30 1019 30.09 849 25.07 0.6 33.1 61 -6 21.1
08:35 1019 30.09 849 25.07 0.7 33.2 63 -5.6 22
08:40 1019 30.09 849 25.07 0.7 33.3 63 -5.6 21.9
08:45 1019 30.09 849 25.07 1.4 34.5 61 -5.4 22.3
08:50 1019 30.09 849 25.07 1.8 35.2 59 -5.5 22.1
08:55 1019 30.09 849 25.07 2.3 36.1 58 -5.2 22.6
09:00 1020 30.12 849 25.07 2.6 36.6 56 -5.3 22.5
09:05 1020 30.12 849 25.07 2.9 37.1 56 -5.1 22.8
09:10 1019 30.09 849 25.07 3.1 37.5 56 -4.9 23.2
09:15 1019 30.09 849 25.07 3.9 39.1 52 -5 23
09:20 1019 30.09 849 25.07 4.2 39.6 51 -5.1 22.8
09:25 1019 30.09 848 25.04 4.1 39.3 51 -5.2 22.7
09:30 1019 30.09 848 25.04 4.5 40 49 -5.2 22.6
09:35 1019 30.09 848 25.04 5.1 41.2 48 -5 23
09:40 1019 30.09 848 25.04 4.8 40.6 49 -5 23
09:45 1019 30.09 848 25.04 4.4 39.8 52 -4.6 23.7
09:50 1019 30.09 848 25.04 4.5 40.2 50 -4.9 23.1
09:55 1019 30.09 848 25.04 4.2 39.6 52 -4.6 23.6
10:00 1019 30.09 848 25.04 4.2 39.5 52 -4.8 23.4
10:05 1019 30.09 848 25.04 4.8 40.7 51 -4.5 23.9
10:10 1019 30.09 848 25.04 3.7 38.7 56 -4.3 24.3
10:15 1019 30.09 848 25.04 4.2 39.5 51 -5.1 22.8
10:20 1019 30.09 848 25.04 5.3 41.5 48 -4.8 23.4
10:25 1019 30.09 848 25.04 5.2 41.4 50 -4.5 24
10:30 1019 30.09 848 25.04 4.2 39.6 53 -4.4 24
10:35 1019 30.09 848 25.04 4.7 40.4 50 -4.8 23.4
10:40 1019 30.09 848 25.04 5.2 41.4 49 -4.6 23.7
10:45 1019 30.09 848 25.04 5.7 42.2 46 -5 23
10:50 1019 30.09 848 25.04 5.8 42.4 44 -5.4 22.3
10:55 1019 30.09 848 25.04 5.5 41.9 47 -4.9 23.1
11:00 1019 30.09 848 25.04 5.3 41.5 47 -5 23
11:05 1019 30.09 848 25.04 5.9 42.6 46 -4.7 23.5
11:10 1019 30.09 848 25.04 6 42.8 46 -4.8 23.3
11:15 1019 30.09 848 25.04 6.8 44.3 43 -4.9 23.2
11:20 1019 30.09 848 25.04 7.2 45 43 -4.5 23.9
11:25 1019 30.09 848 25.04 7.8 46.1 40 -4.9 23.2
11:30 1018 30.06 848 25.04 7.8 46 40 -5.1 22.8
11:35 1018 30.06 847 25.01 8.4 47.1 39 -4.8 23.4
11:40 1018 30.06 848 25.04 8.8 47.8 40 -4.2 24.4
11:45 1019 30.09 848 25.04 8.7 47.6 40 -4.2 24.4
11:50 1018 30.06 848 25.04 8.5 47.3 39 -4.6 23.7
11:55 1018 30.06 847 25.01 9.1 48.3 37 -5 23
12:00 1018 30.06 847 25.01 9.4 48.9 37 -4.6 23.7
12:05 1018 30.06 847 25.01 9.3 48.7 37 -4.8 23.4
12:10 1018 30.06 847 25.01 9.8 49.6 35 -5 23.1
12:15 1018 30.06 847 25.01 10.1 50.1 34 -5.1 22.9
12:20 1018 30.06 847 25.01 10.3 50.5 35 -4.4 24.1
12:25 1018 30.06 847 25.01 10 49.9 35 -4.6 23.7
12:30 1018 30.06 847 25.01 10.4 50.8 34 -4.8 23.3
12:35 1018 30.06 847 25.01 10.3 50.5 36 -4 24.8
12:40 1018 30.06 847 25.01 9.6 49.3 37 -4.4 24.1
12:45 1018 30.06 847 25.01 10.1 50.2 36 -4.3 24.3
12:50 1018 30.06 847 25.01 10.5 50.9 34 -4.7 23.5
12:55 1018 30.06 847 25.01 11 51.7 33 -4.7 23.6
13:00 1018 30.06 847 25.01 11.2 52.1 32 -5 23
13:05 1018 30.06 847 25.01 10.9 51.5 31 -5.5 22.1
13:10 1017 30.03 847 25.01 11.2 52.1 31 -5.4 22.2
13:15 1017 30.03 847 25.01 11.1 52.1 31 -5.1 22.7
13:20 1017 30.03 846 24.98 10.9 51.6 30 -5.8 21.5
13:25 1017 30.03 846 24.98 12 53.5 29 -5.4 22.2
13:30 1017 30.03 846 24.98 12.1 53.8 30 -4.9 23.1
13:35 1017 30.03 846 24.98 11.8 53.2 29 -5.5 22
13:40 1017 30.03 846 24.98 12.5 54.4 28 -5.4 22.3
13:45 1017 30.03 846 24.98 12.6 54.6 28 -5.2 22.6
13:50 1017 30.03 846 24.98 12.8 55 28 -5.2 22.7
13:55 1016 30 846 24.98 12.2 53.9 30 -4.8 23.3
14:00 1016 30 845 24.95 11.4 52.6 30 -5.5 22.1
14:05 1016 30 845 24.95 12.6 54.7 29 -5 23
14:10 1016 30 845 24.95 13 55.3 29 -4.8 23.3
14:15 1016 30 845 24.95 12.8 55 28 -5 22.9
14:20 1016 30 845 24.95 13.1 55.5 28 -5.2 22.6
14:25 1016 30 845 24.95 13.5 56.3 27 -5.2 22.7
14:30 1016 30 845 24.95 13.4 56.2 28 -4.8 23.3
14:35 1016 30 845 24.95 13.4 56 28 -4.5 23.8
14:40 1015 29.97 845 24.95 13.4 56.1 28 -4.5 23.8
14:45 1015 29.97 844 24.92 13.8 56.8 28 -4.5 23.9
14:50 1015 29.97 844 24.92 13.7 56.6 29 -4.1 24.5
14:55 1015 29.97 844 24.92 14.1 57.4 27 -4.4 24.1
15:00 1015 29.97 844 24.92 14.7 58.5 27 -4.2 24.5
15:05 1015 29.97 844 24.92 14.6 58.3 28 -3.8 25.1
15:10 1015 29.97 844 24.92 13.9 57 28 -4 24.8
15:15 1015 29.97 844 24.92 14.6 58.2 27 -4 24.8
15:20 1015 29.97 844 24.92 14.8 58.6 28 -3.4 25.9
15:25 1014 29.94 844 24.92 13.7 56.6 30 -3.5 25.7
15:30 1014 29.94 844 24.92 14 57.1 29 -3.7 25.4
15:35 1014 29.94 843 24.89 14 57.1 30 -3.2 26.2
15:40 1014 29.94 843 24.89 14.4 57.8 29 -3.6 25.6
15:45 1014 29.94 843 24.89 15.5 59.9 27 -3.5 25.6
15:50 1014 29.94 843 24.89 15.1 59.2 28 -3 26.5
15:55 1014 29.94 843 24.89 15.1 59.1 29 -2.6 27.4
16:00 1014 29.94 843 24.89 14.6 58.4 28 -3.5 25.6
16:05 1014 29.94 843 24.89 15.1 59.2 27 -3.5 25.8
16:10 1014 29.94 843 24.89 15.6 60 27 -3.1 26.5
16:15 1014 29.94 843 24.89 15.7 60.2 28 -2.9 26.7
16:20 1014 29.94 843 24.89 14.8 58.6 30 -2.5 27.4
16:25 1014 29.94 843 24.89 14.2 57.6 30 -3 26.7
16:30 1013 29.91 843 24.89 14.3 57.8 29 -3.2 26.2
16:35 1013 29.91 843 24.89 14.7 58.5 30 -2.7 27.1
16:40 1013 29.91 843 24.89 14.2 57.6 31 -2.5 27.5
16:45 1013 29.91 842 24.86 13.5 56.4 32 -2.9 26.7
16:50 1013 29.91 842 24.86 13.5 56.3 32 -2.7 27.1
16:55 1013 29.91 842 24.86 14.1 57.4 30 -3 26.6
17:00 1013 29.91 842 24.86 14.4 57.9 30 -2.7 27.2
17:05 1013 29.91 842 24.86 14.2 57.6 31 -2.4 27.7
17:10 1013 29.91 842 24.86 13.8 56.8 32 -2.6 27.4
17:15 1013 29.91 842 24.86 13.8 56.9 32 -2.5 27.4
17:20 1013 29.91 842 24.86 13.5 56.2 33 -2.5 27.4
17:25 1013 29.91 842 24.86 13.9 57 31 -2.7 27.1
17:30 1013 29.91 842 24.86 15 58.9 30 -2.6 27.3
17:35 1013 29.91 842 24.86 15.3 59.6 30 -2.1 28.2
17:40 1013 29.91 842 24.86 14.9 58.9 31 -2.1 28.2
17:45 1013 29.91 842 24.86 14.8 58.7 31 -2.1 28.1
17:50 1013 29.91 842 24.86 14.9 58.8 31 -1.9 28.5
17:55 1013 29.91 842 24.86 14.8 58.7 32 -1.8 28.7
18:00 1013 29.91 842 24.86 14.7 58.5 33 -1.4 29.5
18:05 1013 29.91 842 24.86 14.8 58.6 33 -1.2 29.8
18:10 1013 29.91 842 24.86 15 59 33 -1.1 29.9
18:15 1013 29.91 842 24.86 14.9 58.7 33 -1.3 29.7
18:20 1013 29.91 842 24.86 14.9 58.8 32 -1.6 29.2
18:25 1013 29.91 842 24.86 15.1 59.1 32 -1.4 29.4
18:30 1013 29.91 842 24.86 14.8 58.7 32 -1.4 29.4
18:35 1013 29.91 842 24.86 14.5 58.1 34 -1.1 30
18:40 1013 29.91 842 24.86 14 57.2 34 -1.4 29.4
18:45 1013 29.91 842 24.86 13.6 56.6 35 -1.4 29.5
18:50 1013 29.91 842 24.86 13.4 56.2 35 -1.5 29.4
18:55 1013 29.91 842 24.86 13.3 55.9 36 -1.4 29.4
19:00 1013 29.91 842 24.86 13.2 55.7 37 -1.2 29.8
19:05 1013 29.91 842 24.86 13.1 55.6 39 -0.6 30.9
19:10 1013 29.91 842 24.86 13.2 55.8 38 -0.6 30.9
19:15 1013 29.91 842 24.86 13.2 55.7 39 -0.4 31.3
19:20 1013 29.91 842 24.86 13.1 55.5 38 -0.7 30.7
19:25 1013 29.91 842 24.86 13.2 55.7 37 -1.1 30
19:30 1013 29.91 842 24.86 13.4 56.1 37 -1.1 30
19:35 1013 29.91 842 24.86 13.3 56 37 -1.1 29.9
19:40 1013 29.91 842 24.86 13.3 56 37 -0.9 30.4
19:45 1013 29.91 842 24.86 13.2 55.7 38 -0.7 30.7
19:50 1013 29.91 842 24.86 13.1 55.5 38 -0.9 30.4
19:55 1013 29.91 842 24.86 13 55.3 38 -0.9 30.5
20:00 1013 29.91 842 24.86 12.8 55.1 39 -0.7 30.8
20:05 1013 29.91 842 24.86 12.4 54.4 41 -0.3 31.4
20:10 1013 29.91 842 24.86 12 53.5 42 -0.5 31.2
20:15 1013 29.91 842 24.86 11.8 53.2 42 -0.7 30.8
20:20 1013 29.91 842 24.86 11.7 53 42 -0.6 30.9
20:25 1013 29.91 842 24.86 11.5 52.8 43 -0.4 31.2
20:30 1013 29.91 842 24.86 11.2 52.2 45 -0.4 31.3
20:35 1013 29.91 842 24.86 11 51.8 46 -0.2 31.7
20:40 1013 29.91 842 24.86 10.8 51.5 46 -0.2 31.6
20:45 1013 29.91 842 24.86 10.6 51.1 47 -0.3 31.5
20:50 1013 29.91 842 24.86 10.3 50.6 48 -0.2 31.7
20:55 1013 29.91 842 24.86 10.1 50.2 49 -0.1 31.9
21:00 1013 29.91 842 24.86 9.9 49.8 49 -0.2 31.6
21:05 1013 29.91 842 24.86 9.8 49.6 49 -0.4 31.2
21:10 1013 29.91 842 24.86 9.9 49.8 49 -0.4 31.3
21:15 1013 29.91 842 24.86 9.9 49.7 50 -0.2 31.7
21:20 1013 29.91 842 24.86 9.7 49.5 50 -0.1 31.8
21:25 1013 29.91 842 24.86 9.6 49.3 50 -0.2 31.6
21:30 1013 29.91 842 24.86 9.6 49.3 50 -0.3 31.4
21:35 1013 29.91 842 24.86 9.7 49.4 49 -0.4 31.3
21:40 1013 29.91 842 24.86 9.7 49.5 49 -0.5 31.1
21:45 1013 29.91 842 24.86 9.7 49.5 49 -0.4 31.2
21:50 1013 29.91 842 24.86 9.6 49.3 49 -0.4 31.2
21:55 1013 29.91 842 24.86 9.6 49.2 49 -0.6 30.9
22:00 1013 29.91 842 24.86 9.7 49.5 48 -0.7 30.8
22:05 1013 29.91 842 24.86 9.8 49.7 50 -0.1 31.7
22:10 1013 29.91 842 24.86 9.7 49.4 49 -0.4 31.4
22:15 1013 29.91 842 24.86 9.5 49.2 50 -0.3 31.4
22:20 1013 29.91 842 24.86 9.5 49 51 -0.2 31.6
22:25 1013 29.91 842 24.86 9.4 48.9 51 -0.3 31.5
22:30 1013 29.91 842 24.86 9.3 48.7 51 -0.2 31.6
22:35 1013 29.91 843 24.89 9.2 48.5 52 -0.1 31.8
22:40 1013 29.91 843 24.89 9.1 48.4 52 -0.3 31.4
22:45 1013 29.91 843 24.89 9.1 48.4 52 -0.2 31.7
22:50 1013 29.91 843 24.89 9.1 48.3 52 -0.3 31.5
22:55 1013 29.91 843 24.89 9 48.2 52 -0.3 31.4
23:00 1013 29.91 843 24.89 9 48.1 52 -0.4 31.4
23:05 1013 29.91 843 24.89 8.8 47.8 53 -0.3 31.4
23:10 1013 29.91 843 24.89 8.6 47.5 53 -0.5 31.2
23:15 1013 29.91 843 24.89 8.5 47.4 53 -0.5 31
23:20 1013 29.91 843 24.89 8.5 47.3 52 -0.9 30.4
23:25 1013 29.91 843 24.89 8.5 47.2 53 -0.6 31
23:30 1014 29.94 843 24.89 8.2 46.7 54 -0.5 31.1
23:35 1014 29.94 843 24.89 7.8 46 55 -0.6 30.8
23:40 1014 29.94 843 24.89 7.8 46 55 -0.7 30.7
23:45 1014 29.94 843 24.89 7.7 45.9 55 -0.7 30.7
23:50 1014 29.94 843 24.89 7.6 45.7 56 -0.4 31.2
23:55 1014 29.94 843 24.89 7.4 45.4 57 -0.5 31
24:00 1013 29.91 843 24.89 7.4 45.2 57 -0.6 30.9